Terminal Aerodrome Forecast
Issued by NWS

Home | Current Version | Previous Version | Text Only | Print | Product List | Glossary On
Versions: 1 2 3 4 5 6 7 8 9 10 11 12 13 14 15 16 17 18 19 20 21 22 23 24 25
173
FTUS43 KDTX 271953 AAA
TAFDET
TAF AMD
KDET 271953Z 2720/2818 15008KT 2SM -SHRA BKN040 OVC060
     FM272100 14005KT 6SM -SHRA SCT060 OVC100
     FM272200 14005KT P6SM SCT080 OVC120
     FM280900 VRB03KT 6SM BR SCT015
     FM281400 25006KT P6SM BKN025
     FM281700 27010KT P6SM BKN035=

USA.gov is the U.S. government's official web portal to all federal, state and local government web resources and services.